createdAt,value
2023-04-08T00:01:41.433Z,9.80
2023-04-08T00:04:09.963Z,9.80
2023-04-08T00:06:39.062Z,9.80
2023-04-08T00:09:08.609Z,9.80
2023-04-08T00:11:37.907Z,9.70
2023-04-08T00:14:06.191Z,9.70
2023-04-08T00:16:34.496Z,9.80
2023-04-08T00:19:02.559Z,9.70
2023-04-08T00:21:31.593Z,9.70
2023-04-08T00:23:59.738Z,9.70
2023-04-08T00:26:29.216Z,9.70
2023-04-08T00:28:57.353Z,9.80
2023-04-08T00:31:25.644Z,9.80
2023-04-08T00:33:53.716Z,9.80
2023-04-08T00:36:21.792Z,9.80
2023-04-08T00:38:50.096Z,9.80
2023-04-08T00:41:18.706Z,9.80
2023-04-08T00:43:48.214Z,9.80
2023-04-08T00:46:16.732Z,9.80
2023-04-08T00:48:44.935Z,9.80
2023-04-08T00:51:13.229Z,9.80
2023-04-08T00:53:41.277Z,9.80
2023-04-08T00:56:09.296Z,9.90
2023-04-08T00:58:37.566Z,9.80
2023-04-08T01:01:11.259Z,9.90
2023-04-08T01:03:47.443Z,9.90
2023-04-08T01:06:24.789Z,9.80
2023-04-08T01:08:53.975Z,9.80
2023-04-08T01:11:22.557Z,9.80
2023-04-08T01:13:51.932Z,9.90
2023-04-08T01:16:23.429Z,9.90
2023-04-08T01:18:53.342Z,9.80
2023-04-08T01:21:23.208Z,9.80
2023-04-08T01:24:00.645Z,9.80
2023-04-08T01:26:30.649Z,9.80
2023-04-08T01:29:01.809Z,9.80
2023-04-08T01:31:32.029Z,9.80
2023-04-08T01:34:02.709Z,9.80
2023-04-08T01:36:32.606Z,9.70
2023-04-08T01:39:02.887Z,9.70
2023-04-08T01:41:34.631Z,9.80
2023-04-08T01:44:03.984Z,9.80
2023-04-08T01:46:33.640Z,9.80
2023-04-08T01:49:02.297Z,9.70
2023-04-08T01:51:32.618Z,9.80
2023-04-08T01:54:00.931Z,9.70
2023-04-08T01:56:34.067Z,9.70
2023-04-08T01:59:03.355Z,9.70
2023-04-08T02:01:33.920Z,9.70
2023-04-08T02:04:03.309Z,9.70
2023-04-08T02:06:32.698Z,9.70
2023-04-08T02:09:01.766Z,9.70
2023-04-08T02:11:29.907Z,9.80
2023-04-08T02:13:59.501Z,9.70
2023-04-08T02:16:34.855Z,9.70
2023-04-08T02:19:09.587Z,9.70
2023-04-08T02:21:44.053Z,9.70
2023-04-08T02:24:14.911Z,9.70
2023-04-08T02:26:45.105Z,9.70
2023-04-08T02:29:17.410Z,9.60
2023-04-08T02:31:46.075Z,9.60
2023-04-08T02:34:16.110Z,9.60
2023-04-08T02:36:46.212Z,9.60
2023-04-08T02:39:14.467Z,9.60
2023-04-08T02:41:42.473Z,9.60
2023-04-08T02:44:10.662Z,9.60
2023-04-08T02:46:40.355Z,9.60
2023-04-08T02:49:08.379Z,9.50
2023-04-08T02:51:36.393Z,9.50
2023-04-08T02:54:04.524Z,9.50
2023-04-08T02:56:32.599Z,9.60
2023-04-08T02:59:00.812Z,9.50
2023-04-08T03:01:29.014Z,9.60
2023-04-08T03:03:58.526Z,9.50
2023-04-08T03:06:27.009Z,9.50
2023-04-08T03:08:55.103Z,9.50
2023-04-08T03:11:23.120Z,9.40
2023-04-08T03:13:51.276Z,9.40
2023-04-08T03:16:19.458Z,9.40
2023-04-08T03:18:47.712Z,9.50
2023-04-08T03:21:17.170Z,9.50
2023-04-08T03:23:45.433Z,9.40
2023-04-08T03:26:13.597Z,9.50
2023-04-08T03:28:41.604Z,9.50
2023-04-08T03:31:09.694Z,9.50
2023-04-08T03:33:37.688Z,9.40
2023-04-08T03:36:06.425Z,9.40
2023-04-08T03:38:35.978Z,9.40
2023-04-08T03:41:04.031Z,9.40
2023-04-08T03:43:32.697Z,9.40
2023-04-08T03:46:00.696Z,9.50
2023-04-08T03:48:29.104Z,9.40
2023-04-08T03:50:57.152Z,9.40
2023-04-08T03:53:28.080Z,9.40
2023-04-08T03:55:57.696Z,9.40
2023-04-08T03:58:26.281Z,9.40
2023-04-08T04:00:54.743Z,9.40
2023-04-08T04:03:23.046Z,9.40
2023-04-08T04:05:51.359Z,9.40
2023-04-08T04:08:19.531Z,9.40
2023-04-08T04:10:47.592Z,9.40
2023-04-08T04:13:17.175Z,9.30
2023-04-08T04:15:45.348Z,9.30
2023-04-08T04:18:13.526Z,9.30
2023-04-08T04:20:42.465Z,9.20
2023-04-08T04:23:11.242Z,9.30
2023-04-08T04:25:42.646Z,9.30
2023-04-08T04:28:10.949Z,9.30
2023-04-08T04:30:41.029Z,9.30
2023-04-08T04:33:09.255Z,9.30
2023-04-08T04:35:37.410Z,9.20
2023-04-08T04:38:08.132Z,9.20
2023-04-08T04:40:36.241Z,9.30
2023-04-08T04:43:04.361Z,9.30
2023-04-08T04:45:32.460Z,9.30
2023-04-08T04:48:02.160Z,9.20
2023-04-08T04:50:30.947Z,9.30
2023-04-08T04:52:59.099Z,9.30
2023-04-08T04:55:27.400Z,9.20
2023-04-08T04:57:55.612Z,9.30
2023-04-08T05:00:23.834Z,9.20
2023-04-08T05:02:52.159Z,9.30
2023-04-08T05:05:21.962Z,9.30
2023-04-08T05:07:50.091Z,9.30
2023-04-08T05:10:18.221Z,9.20
2023-04-08T05:12:46.279Z,9.20
2023-04-08T05:15:14.425Z,9.20
2023-04-08T05:17:42.526Z,9.30
2023-04-08T05:20:11.103Z,9.30
2023-04-08T05:22:40.729Z,9.30
2023-04-08T05:25:09.565Z,9.30
2023-04-08T05:27:37.759Z,9.30
2023-04-08T05:30:06.985Z,9.30
2023-04-08T05:32:35.155Z,9.40
2023-04-08T05:35:04.503Z,9.40
2023-04-08T05:37:32.627Z,9.40
2023-04-08T05:40:02.147Z,9.40
2023-04-08T05:42:30.374Z,9.40
2023-04-08T05:44:58.348Z,9.40
2023-04-08T05:47:26.478Z,9.40
2023-04-08T05:49:54.569Z,9.40
2023-04-08T05:52:22.682Z,9.40
2023-04-08T05:54:50.801Z,9.40
2023-04-08T05:57:20.606Z,9.40
2023-04-08T05:59:48.743Z,9.50
2023-04-08T06:02:16.914Z,9.50
2023-04-08T06:04:45.051Z,9.60
2023-04-08T06:07:13.168Z,9.60
2023-04-08T06:09:41.421Z,9.60
2023-04-08T06:12:09.597Z,9.60
2023-04-08T06:14:39.038Z,9.70
2023-04-08T06:17:07.269Z,9.70
2023-04-08T06:19:36.272Z,9.70
2023-04-08T06:22:04.542Z,9.70
2023-04-08T06:24:33.151Z,9.80
2023-04-08T06:27:01.383Z,9.90
2023-04-08T06:29:29.974Z,9.90
2023-04-08T06:31:59.462Z,9.80
2023-04-08T06:34:27.613Z,9.90
2023-04-08T06:36:55.843Z,9.90
2023-04-08T06:39:23.915Z,10.00
2023-04-08T06:41:52.358Z,10.00
2023-04-08T06:44:20.401Z,10.00
2023-04-08T06:46:48.438Z,10.00
2023-04-08T06:49:17.980Z,9.90
2023-04-08T06:51:46.194Z,9.90
2023-04-08T06:54:14.269Z,9.90
2023-04-08T06:56:42.286Z,9.90
2023-04-08T06:59:10.363Z,10.00
2023-04-08T07:01:38.511Z,10.10
2023-04-08T07:04:06.713Z,10.10
2023-04-08T07:06:36.234Z,10.10
2023-04-08T07:09:04.951Z,10.10
2023-04-08T07:11:33.055Z,10.20
2023-04-08T07:14:01.123Z,10.30
2023-04-08T07:16:31.740Z,10.30
2023-04-08T07:19:00.351Z,10.40
2023-04-08T07:21:28.539Z,10.40
2023-04-08T07:23:58.012Z,10.30
2023-04-08T07:26:26.228Z,10.40
2023-04-08T07:28:54.471Z,10.40
2023-04-08T07:31:23.011Z,10.30
2023-04-08T07:33:51.171Z,10.30
2023-04-08T07:36:19.315Z,10.30
2023-04-08T07:38:47.487Z,10.30
2023-04-08T07:41:16.980Z,10.20
2023-04-08T07:43:45.083Z,10.20
2023-04-08T07:46:13.117Z,10.20
2023-04-08T07:48:41.299Z,10.20
2023-04-08T07:51:11.558Z,10.20
2023-04-08T07:53:40.800Z,10.30
2023-04-08T07:56:13.518Z,10.30
2023-04-08T07:58:43.640Z,10.30
2023-04-08T08:01:20.145Z,10.40
2023-04-08T08:03:48.972Z,10.50
2023-04-08T08:06:17.384Z,10.50
2023-04-08T08:08:46.995Z,10.50
2023-04-08T08:11:15.126Z,10.40
2023-04-08T08:13:44.595Z,10.40
2023-04-08T08:16:12.807Z,10.40
2023-04-08T08:18:41.272Z,10.40
2023-04-08T08:21:09.718Z,10.50
2023-04-08T08:23:38.660Z,10.60
2023-04-08T08:26:09.980Z,10.70
2023-04-08T08:28:38.797Z,10.90
2023-04-08T08:31:08.512Z,11.00
2023-04-08T08:33:36.689Z,11.10
2023-04-08T08:36:16.666Z,11.10
2023-04-08T08:38:44.805Z,11.10
2023-04-08T08:41:13.095Z,11.10
2023-04-08T08:43:41.307Z,11.10
2023-04-08T08:46:12.117Z,11.10
2023-04-08T08:48:40.814Z,11.10
2023-04-08T08:51:10.552Z,11.20
2023-04-08T08:53:39.386Z,11.10
2023-04-08T08:58:41.660Z,11.20
2023-04-08T09:01:33.617Z,11.30
2023-04-08T09:04:09.710Z,11.40
2023-04-08T09:06:38.216Z,11.50
2023-04-08T09:09:10.600Z,11.60
2023-04-08T09:11:40.770Z,11.60
2023-04-08T09:14:20.276Z,11.70
2023-04-08T09:16:50.093Z,11.80
2023-04-08T09:19:18.478Z,11.70
2023-04-08T09:21:47.692Z,11.90
2023-04-08T09:24:29.887Z,12.10
2023-04-08T09:26:57.963Z,12.30
2023-04-08T09:29:31.137Z,12.50
2023-04-08T09:32:03.710Z,12.70
2023-04-08T09:34:34.178Z,12.70
2023-04-08T09:37:02.733Z,12.90
2023-04-08T09:39:31.596Z,12.90
2023-04-08T09:42:02.011Z,13.00
2023-04-08T09:44:32.041Z,13.10
2023-04-08T09:47:09.835Z,13.10
2023-04-08T09:49:43.568Z,13.10
2023-04-08T09:52:20.859Z,13.10
2023-04-08T09:54:55.838Z,13.10
2023-04-08T09:57:30.188Z,13.10
2023-04-08T10:00:08.448Z,12.90
2023-04-08T10:02:56.610Z,12.90
2023-04-08T10:05:33.399Z,12.90
2023-04-08T10:08:01.845Z,12.90
2023-04-08T10:10:30.416Z,13.00
2023-04-08T10:12:59.198Z,13.20
2023-04-08T10:15:29.201Z,13.30
2023-04-08T10:18:32.924Z,13.50
2023-04-08T10:21:01.412Z,13.70
2023-04-08T10:23:56.530Z,13.70
2023-04-08T10:26:39.332Z,13.60
2023-04-08T10:29:31.952Z,13.50
2023-04-08T10:32:00.397Z,13.50
2023-04-08T10:34:31.380Z,13.60
2023-04-08T10:37:03.787Z,13.70
2023-04-08T10:39:32.605Z,13.80
2023-04-08T10:42:04.135Z,13.80
2023-04-08T10:44:32.307Z,13.80
2023-04-08T10:47:01.219Z,13.70
2023-04-08T10:49:37.004Z,13.60
2023-04-08T10:52:09.387Z,13.50
2023-04-08T10:54:40.904Z,13.40
2023-04-08T10:57:09.112Z,13.40
2023-04-08T10:59:37.251Z,13.30
2023-04-08T11:02:05.572Z,13.20
2023-04-08T11:04:35.421Z,13.10
2023-04-08T11:07:06.868Z,13.10
2023-04-08T11:09:35.785Z,13.00
2023-04-08T11:12:03.960Z,12.90
2023-04-08T11:14:33.274Z,12.90
2023-04-08T11:17:01.765Z,12.80
2023-04-08T11:19:30.443Z,12.70
2023-04-08T11:22:00.078Z,12.60
2023-04-08T11:24:28.983Z,12.60
2023-04-08T11:26:57.274Z,12.50
2023-04-08T11:29:28.068Z,12.40
2023-04-08T11:31:56.855Z,12.40
2023-04-08T11:34:26.140Z,12.40
2023-04-08T11:36:54.374Z,12.30
2023-04-08T11:39:26.462Z,12.30
2023-04-08T11:41:55.399Z,12.30
2023-04-08T11:44:32.156Z,12.40
2023-04-08T11:47:02.123Z,12.40
2023-04-08T11:49:45.740Z,12.30
2023-04-08T11:52:14.123Z,12.30
2023-04-08T11:54:44.485Z,12.30
2023-04-08T11:57:12.896Z,12.40
2023-04-08T11:59:41.654Z,12.40
2023-04-08T12:02:10.253Z,12.30
2023-04-08T12:04:38.788Z,12.40
2023-04-08T12:07:06.830Z,12.40
2023-04-08T12:09:34.957Z,12.30
2023-04-08T12:12:04.577Z,12.40
2023-04-08T12:14:32.642Z,12.40
2023-04-08T12:17:01.183Z,12.40
2023-04-08T12:19:29.278Z,12.40
2023-04-08T12:21:57.506Z,12.40
2023-04-08T12:24:26.851Z,12.40
2023-04-08T12:26:55.085Z,12.40
2023-04-08T12:29:24.677Z,12.50
2023-04-08T12:31:53.366Z,12.40
2023-04-08T12:34:21.585Z,12.40
2023-04-08T12:36:50.414Z,12.40
2023-04-08T12:39:18.479Z,12.30
2023-04-08T12:41:46.561Z,12.40
2023-04-08T12:44:14.753Z,12.40
2023-04-08T12:46:44.354Z,12.40
2023-04-08T12:49:13.176Z,12.30
2023-04-08T12:51:41.298Z,12.20
2023-04-08T12:54:09.831Z,12.20
2023-04-08T12:56:39.131Z,12.20
2023-04-08T12:59:07.255Z,12.20
2023-04-08T13:01:35.902Z,12.10
2023-04-08T13:04:05.807Z,12.00
2023-04-08T13:06:33.981Z,12.00
2023-04-08T13:09:02.057Z,12.00
2023-04-08T13:11:30.200Z,11.90
2023-04-08T13:13:58.312Z,11.90
2023-04-08T13:16:27.377Z,11.90
2023-04-08T13:18:55.679Z,11.80
2023-04-08T13:21:25.843Z,11.80
2023-04-08T13:23:53.951Z,11.80
2023-04-08T13:26:22.151Z,11.80
2023-04-08T13:28:57.120Z,11.90
2023-04-08T13:31:26.568Z,12.00
2023-04-08T13:33:57.613Z,11.90
2023-04-08T13:36:28.453Z,12.00
2023-04-08T13:38:56.640Z,11.90
2023-04-08T13:41:25.408Z,12.00
2023-04-08T13:43:53.835Z,11.90
2023-04-08T13:46:22.015Z,11.90
2023-04-08T13:48:50.430Z,12.00
2023-04-08T13:51:18.629Z,12.10
2023-04-08T13:53:48.200Z,12.10
2023-04-08T13:56:16.308Z,12.10
2023-04-08T13:58:47.720Z,12.10
2023-04-08T14:01:18.486Z,12.20
2023-04-08T14:03:46.694Z,12.20
2023-04-08T14:06:14.777Z,12.20
2023-04-08T14:08:42.931Z,12.20
2023-04-08T14:11:12.757Z,12.20
2023-04-08T14:13:40.921Z,12.20
2023-04-08T14:16:09.125Z,12.20
2023-04-08T14:18:37.655Z,12.20
2023-04-08T14:21:07.419Z,12.20
2023-04-08T14:23:35.857Z,12.20
2023-04-08T14:26:03.942Z,12.20
2023-04-08T14:28:33.398Z,12.20
2023-04-08T14:31:03.929Z,12.20
2023-04-08T14:33:32.404Z,12.20
2023-04-08T14:36:00.752Z,12.20
2023-04-08T14:38:28.963Z,12.40
2023-04-08T14:40:57.066Z,12.40
2023-04-08T14:43:25.149Z,12.40
2023-04-08T14:45:54.943Z,12.30
2023-04-08T14:48:25.847Z,12.30
2023-04-08T14:50:53.938Z,12.20
2023-04-08T14:53:21.988Z,12.20
2023-04-08T14:55:50.495Z,12.20
2023-04-08T14:58:19.896Z,12.20
2023-04-08T15:00:48.005Z,12.20
2023-04-08T15:03:18.722Z,12.30
2023-04-08T15:05:46.940Z,12.30
2023-04-08T15:08:15.892Z,12.30
2023-04-08T15:10:44.676Z,12.40
2023-04-08T15:13:13.094Z,12.50
2023-04-08T15:15:41.349Z,12.50
2023-04-08T15:18:09.609Z,12.50
2023-04-08T15:20:39.173Z,12.60
2023-04-08T15:23:07.908Z,12.50
2023-04-08T15:25:36.328Z,12.50
2023-04-08T15:28:04.736Z,12.40
2023-04-08T15:30:35.395Z,12.40
2023-04-08T15:33:04.916Z,12.40
2023-04-08T15:35:33.640Z,12.30
2023-04-08T15:38:03.218Z,12.20
2023-04-08T15:40:33.842Z,12.10
2023-04-08T15:43:03.838Z,12.10
2023-04-08T15:45:32.038Z,12.10
2023-04-08T15:48:00.710Z,12.10
2023-04-08T15:50:31.011Z,12.00
2023-04-08T15:52:59.087Z,12.00
2023-04-08T15:55:28.529Z,11.90
2023-04-08T15:57:57.248Z,12.00
2023-04-08T16:00:25.993Z,12.00
2023-04-08T16:02:54.418Z,12.00
2023-04-08T16:05:22.783Z,12.00
2023-04-08T16:07:50.870Z,12.00
2023-04-08T16:10:19.320Z,12.00
2023-04-08T16:12:49.328Z,12.00
2023-04-08T16:15:17.605Z,12.00
2023-04-08T16:17:50.827Z,12.00
2023-04-08T16:20:20.627Z,11.90
2023-04-08T16:22:50.133Z,11.90
2023-04-08T16:25:18.459Z,12.00
2023-04-08T16:27:49.133Z,11.90
2023-04-08T16:30:17.364Z,11.90
2023-04-08T16:32:45.592Z,11.90
2023-04-08T16:35:14.238Z,11.90
2023-04-08T16:37:42.448Z,11.90
2023-04-08T16:40:11.556Z,11.90
2023-04-08T16:42:39.644Z,11.90
2023-04-08T16:45:10.488Z,11.80
2023-04-08T16:47:39.298Z,11.80
2023-04-08T16:50:09.004Z,11.90
2023-04-08T16:52:37.236Z,11.80
2023-04-08T16:55:06.105Z,11.80
2023-04-08T16:57:34.271Z,11.80
2023-04-08T17:00:02.495Z,11.80
2023-04-08T17:02:32.137Z,11.70
2023-04-08T17:05:00.681Z,11.70
2023-04-08T17:07:29.339Z,11.70
2023-04-08T17:09:57.830Z,11.70
2023-04-08T17:12:26.309Z,11.60
2023-04-08T17:14:55.018Z,11.60
2023-04-08T17:17:23.233Z,11.60
2023-04-08T17:19:53.090Z,11.50
2023-04-08T17:22:21.540Z,11.50
2023-04-08T17:24:49.601Z,11.50
2023-04-08T17:27:17.724Z,11.50
2023-04-08T17:29:46.054Z,11.40
2023-04-08T17:32:14.263Z,11.40
2023-04-08T17:34:42.504Z,11.40
2023-04-08T17:37:11.950Z,11.30
2023-04-08T17:39:40.905Z,11.30
2023-04-08T17:42:09.587Z,11.30
2023-04-08T17:44:37.792Z,11.20
2023-04-08T17:47:06.079Z,11.30
2023-04-08T17:49:34.271Z,11.30
2023-04-08T17:52:02.536Z,11.20
2023-04-08T17:54:34.456Z,11.10
2023-04-08T17:57:03.117Z,11.00
2023-04-08T17:59:31.341Z,11.00
2023-04-08T18:01:59.526Z,10.90
2023-04-08T18:04:28.784Z,10.80
2023-04-08T18:06:57.228Z,10.80
2023-04-08T18:09:25.448Z,10.70
2023-04-08T18:11:55.081Z,10.60
2023-04-08T18:14:23.175Z,10.60
2023-04-08T18:16:51.352Z,10.50
2023-04-08T18:19:19.738Z,10.50
2023-04-08T18:21:47.966Z,10.50
2023-04-08T18:24:16.177Z,10.40
2023-04-08T18:26:45.438Z,10.40
2023-04-08T18:29:18.772Z,10.40
2023-04-08T18:31:46.939Z,10.40
2023-04-08T18:34:15.055Z,10.40
2023-04-08T18:36:43.120Z,10.40
2023-04-08T18:39:11.831Z,10.30
2023-04-08T18:41:40.118Z,10.30
2023-04-08T18:44:08.258Z,10.30
2023-04-08T18:46:37.927Z,10.20
2023-04-08T18:49:06.179Z,10.20
2023-04-08T18:51:34.580Z,10.20
2023-04-08T18:54:02.689Z,10.20
2023-04-08T18:56:30.815Z,10.20
2023-04-08T18:58:59.432Z,10.20
2023-04-08T19:01:28.988Z,10.20
2023-04-08T19:03:58.637Z,10.20
2023-04-08T19:06:28.547Z,10.20
2023-04-08T19:08:57.001Z,10.20
2023-04-08T19:11:29.003Z,10.20
2023-04-08T19:13:57.105Z,10.10
2023-04-08T19:16:25.558Z,10.20
2023-04-08T19:18:54.859Z,10.20
2023-04-08T19:21:24.480Z,10.20
2023-04-08T19:23:52.897Z,10.20
2023-04-08T19:26:21.308Z,10.20
2023-04-08T19:28:49.357Z,10.20
2023-04-08T19:31:18.016Z,10.10
2023-04-08T19:33:46.279Z,10.20
2023-04-08T19:36:14.621Z,10.20
2023-04-08T19:38:44.202Z,10.20
2023-04-08T19:41:12.411Z,10.10
2023-04-08T19:43:40.582Z,10.10
2023-04-08T19:46:08.741Z,10.10
2023-04-08T19:48:36.930Z,10.10
2023-04-08T19:51:05.179Z,10.10
2023-04-08T19:53:33.307Z,10.10
2023-04-08T19:56:03.302Z,10.10
2023-04-08T19:58:31.555Z,10.10
2023-04-08T20:00:59.616Z,10.10
2023-04-08T20:03:28.052Z,10.10
2023-04-08T20:05:56.474Z,10.10
2023-04-08T20:08:24.584Z,10.10
2023-04-08T20:10:53.934Z,10.10
2023-04-08T20:13:23.441Z,10.10
2023-04-08T20:15:52.564Z,10.00
2023-04-08T20:18:20.660Z,10.10
2023-04-08T20:20:49.361Z,10.10
2023-04-08T20:23:17.800Z,10.00
2023-04-08T20:25:45.923Z,10.10
2023-04-08T20:28:14.001Z,10.10
2023-04-08T20:30:43.512Z,10.10
2023-04-08T20:33:11.667Z,10.00
2023-04-08T20:35:39.909Z,10.00
2023-04-08T20:38:07.968Z,10.00
2023-04-08T20:40:36.039Z,10.00
2023-04-08T20:43:04.118Z,10.00
2023-04-08T20:45:32.261Z,10.00
2023-04-08T20:48:01.934Z,10.00
2023-04-08T20:50:30.192Z,10.00
2023-04-08T20:52:58.484Z,10.00
2023-04-08T20:55:26.566Z,9.90
2023-04-08T20:57:54.666Z,9.90
2023-04-08T21:00:22.764Z,9.90
2023-04-08T21:02:51.475Z,9.90
2023-04-08T21:05:22.082Z,9.80
2023-04-08T21:07:50.077Z,9.80
2023-04-08T21:10:18.492Z,9.80
2023-04-08T21:12:46.560Z,9.80
2023-04-08T21:15:14.642Z,9.80
2023-04-08T21:17:42.694Z,9.80
2023-04-08T21:20:12.209Z,9.80
2023-04-08T21:22:41.551Z,9.80
2023-04-08T21:25:09.878Z,9.80
2023-04-08T21:27:38.109Z,9.80
2023-04-08T21:30:07.228Z,9.80
2023-04-08T21:32:35.429Z,9.80
2023-04-08T21:35:03.501Z,9.80
2023-04-08T21:37:31.604Z,9.80
2023-04-08T21:40:01.183Z,9.70
2023-04-08T21:42:29.275Z,9.70
2023-04-08T21:44:57.716Z,9.70
2023-04-08T21:47:25.952Z,9.80
2023-04-08T21:49:54.236Z,9.70
2023-04-08T21:52:22.478Z,9.70
2023-04-08T21:54:51.564Z,9.70
2023-04-08T21:57:21.057Z,9.70
2023-04-08T21:59:49.643Z,9.60
2023-04-08T22:02:17.809Z,9.70
2023-04-08T22:04:46.106Z,9.60
2023-04-08T22:07:14.416Z,9.70
2023-04-08T22:09:42.600Z,9.60
2023-04-08T22:12:11.160Z,9.60
2023-04-08T22:14:40.608Z,9.50
2023-04-08T22:17:08.970Z,9.50
2023-04-08T22:19:37.157Z,9.40
2023-04-08T22:22:05.354Z,9.40
2023-04-08T22:24:33.554Z,9.40
2023-04-08T22:27:01.726Z,9.30
2023-04-08T22:29:29.798Z,9.30
2023-04-08T22:31:59.225Z,9.30
2023-04-08T22:34:27.488Z,9.20
2023-04-08T22:36:55.536Z,9.20
2023-04-08T22:39:26.059Z,9.20
2023-04-08T22:41:54.130Z,9.30
2023-04-08T22:44:22.247Z,9.20
2023-04-08T22:46:50.392Z,9.20
2023-04-08T22:49:20.005Z,9.20
2023-04-08T22:51:48.054Z,9.10
2023-04-08T22:54:16.170Z,9.10
2023-04-08T22:56:44.240Z,9.10
2023-04-08T22:59:12.452Z,9.10
2023-04-08T23:01:41.549Z,9.00
2023-04-08T23:04:09.760Z,9.10
2023-04-08T23:06:39.344Z,9.00
2023-04-08T23:09:07.533Z,9.00
2023-04-08T23:11:35.561Z,9.10
2023-04-08T23:14:03.647Z,9.00
2023-04-08T23:16:31.809Z,9.00
2023-04-08T23:18:59.773Z,9.00
2023-04-08T23:21:27.811Z,9.00
2023-04-08T23:23:57.374Z,9.00
2023-04-08T23:26:26.063Z,9.00
2023-04-08T23:28:54.382Z,9.00
2023-04-08T23:31:22.826Z,8.90
2023-04-08T23:33:51.441Z,8.90
2023-04-08T23:36:19.548Z,8.90
2023-04-08T23:38:47.692Z,8.90
2023-04-08T23:41:17.414Z,8.80
2023-04-08T23:43:46.844Z,8.70
2023-04-08T23:46:15.082Z,8.60
2023-04-08T23:48:43.101Z,8.60
2023-04-08T23:51:12.143Z,8.60
2023-04-08T23:53:41.113Z,8.50
2023-04-08T23:56:10.582Z,8.50
2023-04-08T23:58:40.413Z,8.50
